sensor_id;sensor_type;location;lat;lon;timestamp;P1;durP1;ratioP1;P2;durP2;ratioP2
73593;SDS011;64760;53.404;23.498;2023-05-29T00:02:18;9.68;;;3.38;;
73593;SDS011;64760;53.404;23.498;2023-05-29T00:04:45;5.72;;;3.08;;
73593;SDS011;64760;53.404;23.498;2023-05-29T00:07:11;6.78;;;3.10;;
73593;SDS011;64760;53.404;23.498;2023-05-29T00:09:37;8.38;;;3.83;;
73593;SDS011;64760;53.404;23.498;2023-05-29T00:12:03;8.50;;;3.63;;
73593;SDS011;64760;53.404;23.498;2023-05-29T00:14:30;7.47;;;3.17;;
73593;SDS011;64760;53.404;23.498;2023-05-29T00:16:56;5.57;;;3.40;;
73593;SDS011;64760;53.404;23.498;2023-05-29T00:19:22;5.85;;;3.13;;
73593;SDS011;64760;53.404;23.498;2023-05-29T00:21:50;5.20;;;3.25;;
73593;SDS011;64760;53.404;23.498;2023-05-29T00:24:16;7.50;;;3.50;;
73593;SDS011;64760;53.404;23.498;2023-05-29T00:26:43;8.07;;;3.80;;
73593;SDS011;64760;53.404;23.498;2023-05-29T00:29:09;7.50;;;3.40;;
73593;SDS011;64760;53.404;23.498;2023-05-29T00:31:35;4.55;;;2.88;;
73593;SDS011;64760;53.404;23.498;2023-05-29T00:34:02;4.22;;;2.80;;
73593;SDS011;64760;53.404;23.498;2023-05-29T00:36:28;6.68;;;3.00;;
73593;SDS011;64760;53.404;23.498;2023-05-29T00:38:55;4.57;;;2.53;;
73593;SDS011;64760;53.404;23.498;2023-05-29T00:41:21;4.93;;;2.28;;
73593;SDS011;64760;53.404;23.498;2023-05-29T00:43:48;4.88;;;2.25;;
73593;SDS011;64760;53.404;23.498;2023-05-29T00:46:14;6.20;;;1.98;;
73593;SDS011;64760;53.404;23.498;2023-05-29T00:48:42;5.90;;;2.65;;
73593;SDS011;64760;53.404;23.498;2023-05-29T00:51:09;6.05;;;3.10;;
73593;SDS011;64760;53.404;23.498;2023-05-29T00:53:38;8.35;;;3.17;;
73593;SDS011;64760;53.404;23.498;2023-05-29T00:56:06;9.55;;;3.60;;
73593;SDS011;64760;53.404;23.498;2023-05-29T00:58:33;6.75;;;3.13;;
73593;SDS011;64760;53.404;23.498;2023-05-29T01:01:00;4.65;;;2.55;;
73593;SDS011;64760;53.404;23.498;2023-05-29T01:03:26;6.63;;;2.78;;
73593;SDS011;64760;53.404;23.498;2023-05-29T01:05:54;5.78;;;2.72;;
73593;SDS011;64760;53.404;23.498;2023-05-29T01:08:20;5.78;;;2.30;;
73593;SDS011;64760;53.404;23.498;2023-05-29T01:10:46;9.90;;;3.67;;
73593;SDS011;64760;53.404;23.498;2023-05-29T01:13:19;5.30;;;2.72;;
73593;SDS011;64760;53.404;23.498;2023-05-29T01:15:54;5.13;;;2.40;;
73593;SDS011;64760;53.404;23.498;2023-05-29T01:18:41;3.72;;;2.00;;
73593;SDS011;64760;53.404;23.498;2023-05-29T01:27:09;5.55;;;2.10;;
73593;SDS011;64760;53.404;23.498;2023-05-29T01:29:56;5.07;;;1.88;;
73593;SDS011;64760;53.404;23.498;2023-05-29T01:32:24;3.35;;;1.60;;
73593;SDS011;64760;53.404;23.498;2023-05-29T01:34:51;5.18;;;2.00;;
73593;SDS011;64760;53.404;23.498;2023-05-29T01:37:18;5.18;;;2.28;;
73593;SDS011;64760;53.404;23.498;2023-05-29T01:39:45;4.70;;;2.00;;
73593;SDS011;64760;53.404;23.498;2023-05-29T01:42:12;3.55;;;1.58;;
73593;SDS011;64760;53.404;23.498;2023-05-29T01:44:39;3.63;;;1.65;;
73593;SDS011;64760;53.404;23.498;2023-05-29T01:47:06;4.78;;;1.98;;
73593;SDS011;64760;53.404;23.498;2023-05-29T01:49:34;4.20;;;1.60;;
73593;SDS011;64760;53.404;23.498;2023-05-29T01:52:02;6.68;;;1.70;;
73593;SDS011;64760;53.404;23.498;2023-05-29T01:54:29;4.88;;;1.73;;
73593;SDS011;64760;53.404;23.498;2023-05-29T01:56:55;3.78;;;1.90;;
73593;SDS011;64760;53.404;23.498;2023-05-29T01:59:22;5.88;;;1.80;;
73593;SDS011;64760;53.404;23.498;2023-05-29T02:01:48;3.78;;;2.17;;
73593;SDS011;64760;53.404;23.498;2023-05-29T02:04:15;6.68;;;2.70;;
73593;SDS011;64760;53.404;23.498;2023-05-29T02:06:41;6.55;;;3.05;;
73593;SDS011;64760;53.404;23.498;2023-05-29T02:09:07;5.93;;;2.95;;
73593;SDS011;64760;53.404;23.498;2023-05-29T02:11:33;7.55;;;3.33;;
73593;SDS011;64760;53.404;23.498;2023-05-29T02:14:00;7.72;;;3.65;;
73593;SDS011;64760;53.404;23.498;2023-05-29T02:16:29;6.88;;;3.33;;
73593;SDS011;64760;53.404;23.498;2023-05-29T02:19:00;8.35;;;3.92;;
73593;SDS011;64760;53.404;23.498;2023-05-29T02:23:53;6.28;;;3.17;;
73593;SDS011;64760;53.404;23.498;2023-05-29T02:26:19;5.38;;;2.55;;
73593;SDS011;64760;53.404;23.498;2023-05-29T02:28:46;6.55;;;2.70;;
73593;SDS011;64760;53.404;23.498;2023-05-29T02:31:12;6.40;;;2.88;;
73593;SDS011;64760;53.404;23.498;2023-05-29T02:33:39;5.35;;;2.90;;
73593;SDS011;64760;53.404;23.498;2023-05-29T02:36:05;6.05;;;3.08;;
73593;SDS011;64760;53.404;23.498;2023-05-29T02:38:36;4.88;;;2.85;;
73593;SDS011;64760;53.404;23.498;2023-05-29T02:41:02;6.38;;;2.90;;
73593;SDS011;64760;53.404;23.498;2023-05-29T02:43:28;8.05;;;3.17;;
73593;SDS011;64760;53.404;23.498;2023-05-29T02:45:54;8.20;;;3.00;;
73593;SDS011;64760;53.404;23.498;2023-05-29T02:48:21;6.53;;;3.20;;
73593;SDS011;64760;53.404;23.498;2023-05-29T02:50:47;5.18;;;2.90;;
73593;SDS011;64760;53.404;23.498;2023-05-29T02:53:14;5.15;;;2.95;;
73593;SDS011;64760;53.404;23.498;2023-05-29T02:55:40;6.53;;;3.00;;
73593;SDS011;64760;53.404;23.498;2023-05-29T02:58:06;5.45;;;2.72;;
73593;SDS011;64760;53.404;23.498;2023-05-29T03:00:33;5.03;;;2.63;;
73593;SDS011;64760;53.404;23.498;2023-05-29T03:03:00;7.45;;;2.60;;
73593;SDS011;64760;53.404;23.498;2023-05-29T03:05:26;4.45;;;2.42;;
73593;SDS011;64760;53.404;23.498;2023-05-29T03:07:53;11.02;;;2.35;;
73593;SDS011;64760;53.404;23.498;2023-05-29T03:10:19;6.68;;;2.75;;
73593;SDS011;64760;53.404;23.498;2023-05-29T03:12:49;6.03;;;2.38;;
73593;SDS011;64760;53.404;23.498;2023-05-29T03:15:15;3.85;;;2.05;;
73593;SDS011;64760;53.404;23.498;2023-05-29T03:17:42;3.97;;;2.10;;
73593;SDS011;64760;53.404;23.498;2023-05-29T03:20:13;6.47;;;2.70;;
73593;SDS011;64760;53.404;23.498;2023-05-29T03:22:39;6.60;;;2.80;;
73593;SDS011;64760;53.404;23.498;2023-05-29T03:25:06;4.18;;;2.22;;
73593;SDS011;64760;53.404;23.498;2023-05-29T03:27:33;7.60;;;2.35;;
73593;SDS011;64760;53.404;23.498;2023-05-29T03:30:07;7.07;;;2.58;;
73593;SDS011;64760;53.404;23.498;2023-05-29T03:32:34;8.23;;;2.65;;
73593;SDS011;64760;53.404;23.498;2023-05-29T03:35:00;7.47;;;2.83;;
73593;SDS011;64760;53.404;23.498;2023-05-29T03:37:28;5.80;;;2.95;;
73593;SDS011;64760;53.404;23.498;2023-05-29T03:39:55;6.50;;;3.58;;
73593;SDS011;64760;53.404;23.498;2023-05-29T03:42:23;6.53;;;3.53;;
73593;SDS011;64760;53.404;23.498;2023-05-29T03:44:50;7.25;;;3.85;;
73593;SDS011;64760;53.404;23.498;2023-05-29T03:47:17;10.65;;;6.45;;
73593;SDS011;64760;53.404;23.498;2023-05-29T03:49:44;28.70;;;16.15;;
73593;SDS011;64760;53.404;23.498;2023-05-29T03:52:11;14.05;;;7.05;;
73593;SDS011;64760;53.404;23.498;2023-05-29T03:54:37;14.02;;;6.80;;
73593;SDS011;64760;53.404;23.498;2023-05-29T03:57:04;11.20;;;6.13;;
73593;SDS011;64760;53.404;23.498;2023-05-29T03:59:32;10.82;;;5.05;;
73593;SDS011;64760;53.404;23.498;2023-05-29T04:01:58;8.85;;;5.40;;
73593;SDS011;64760;53.404;23.498;2023-05-29T04:04:25;13.40;;;5.20;;
73593;SDS011;64760;53.404;23.498;2023-05-29T04:06:51;12.73;;;5.43;;
73593;SDS011;64760;53.404;23.498;2023-05-29T04:09:18;9.15;;;4.65;;
73593;SDS011;64760;53.404;23.498;2023-05-29T04:11:44;8.27;;;4.18;;
73593;SDS011;64760;53.404;23.498;2023-05-29T04:14:12;8.70;;;4.03;;
73593;SDS011;64760;53.404;23.498;2023-05-29T04:16:38;20.42;;;7.80;;
73593;SDS011;64760;53.404;23.498;2023-05-29T04:19:04;20.42;;;11.23;;
73593;SDS011;64760;53.404;23.498;2023-05-29T04:21:31;12.02;;;4.70;;
73593;SDS011;64760;53.404;23.498;2023-05-29T04:24:01;8.32;;;4.20;;
73593;SDS011;64760;53.404;23.498;2023-05-29T04:26:27;9.15;;;3.88;;
73593;SDS011;64760;53.404;23.498;2023-05-29T04:28:54;5.38;;;2.70;;
73593;SDS011;64760;53.404;23.498;2023-05-29T04:31:24;9.27;;;3.45;;
73593;SDS011;64760;53.404;23.498;2023-05-29T04:33:53;6.88;;;3.28;;
73593;SDS011;64760;53.404;23.498;2023-05-29T04:36:22;8.85;;;3.85;;
73593;SDS011;64760;53.404;23.498;2023-05-29T04:38:53;8.80;;;4.10;;
73593;SDS011;64760;53.404;23.498;2023-05-29T04:41:21;6.60;;;2.92;;
73593;SDS011;64760;53.404;23.498;2023-05-29T04:43:56;6.28;;;3.28;;
73593;SDS011;64760;53.404;23.498;2023-05-29T04:46:27;6.03;;;2.42;;
73593;SDS011;64760;53.404;23.498;2023-05-29T04:48:53;6.97;;;3.00;;
73593;SDS011;64760;53.404;23.498;2023-05-29T04:51:20;5.85;;;2.63;;
73593;SDS011;64760;53.404;23.498;2023-05-29T04:53:48;6.28;;;2.42;;
73593;SDS011;64760;53.404;23.498;2023-05-29T04:56:17;6.70;;;3.40;;
73593;SDS011;64760;53.404;23.498;2023-05-29T04:58:45;5.00;;;2.33;;
73593;SDS011;64760;53.404;23.498;2023-05-29T05:01:12;7.18;;;2.83;;
73593;SDS011;64760;53.404;23.498;2023-05-29T05:03:43;8.82;;;4.00;;
73593;SDS011;64760;53.404;23.498;2023-05-29T05:06:10;9.57;;;3.47;;
73593;SDS011;64760;53.404;23.498;2023-05-29T05:08:36;6.78;;;3.08;;
73593;SDS011;64760;53.404;23.498;2023-05-29T05:11:04;9.40;;;3.05;;
73593;SDS011;64760;53.404;23.498;2023-05-29T05:13:32;7.07;;;2.95;;
73593;SDS011;64760;53.404;23.498;2023-05-29T05:15:59;6.97;;;2.90;;
73593;SDS011;64760;53.404;23.498;2023-05-29T05:18:27;8.40;;;3.33;;
73593;SDS011;64760;53.404;23.498;2023-05-29T05:21:00;7.68;;;3.10;;
73593;SDS011;64760;53.404;23.498;2023-05-29T05:23:26;6.13;;;2.72;;
73593;SDS011;64760;53.404;23.498;2023-05-29T05:25:52;5.60;;;2.42;;
73593;SDS011;64760;53.404;23.498;2023-05-29T05:28:18;6.13;;;2.85;;
73593;SDS011;64760;53.404;23.498;2023-05-29T05:30:45;5.05;;;2.60;;
73593;SDS011;64760;53.404;23.498;2023-05-29T05:33:11;6.68;;;2.33;;
73593;SDS011;64760;53.404;23.498;2023-05-29T05:35:38;6.63;;;2.33;;
73593;SDS011;64760;53.404;23.498;2023-05-29T05:38:05;5.45;;;2.00;;
73593;SDS011;64760;53.404;23.498;2023-05-29T05:40:32;6.68;;;2.63;;
73593;SDS011;64760;53.404;23.498;2023-05-29T05:43:04;7.55;;;2.22;;
73593;SDS011;64760;53.404;23.498;2023-05-29T05:45:50;5.03;;;2.08;;
73593;SDS011;64760;53.404;23.498;2023-05-29T05:48:16;7.20;;;2.10;;
73593;SDS011;64760;53.404;23.498;2023-05-29T05:50:43;5.20;;;1.70;;
73593;SDS011;64760;53.404;23.498;2023-05-29T05:53:09;5.15;;;1.95;;
73593;SDS011;64760;53.404;23.498;2023-05-29T05:55:35;4.22;;;1.88;;
73593;SDS011;64760;53.404;23.498;2023-05-29T05:58:03;7.65;;;2.58;;
73593;SDS011;64760;53.404;23.498;2023-05-29T06:00:29;4.13;;;1.75;;
73593;SDS011;64760;53.404;23.498;2023-05-29T06:02:56;5.15;;;2.45;;
73593;SDS011;64760;53.404;23.498;2023-05-29T06:05:50;4.15;;;1.90;;
73593;SDS011;64760;53.404;23.498;2023-05-29T06:08:17;10.35;;;2.25;;
73593;SDS011;64760;53.404;23.498;2023-05-29T06:10:44;4.25;;;2.00;;
73593;SDS011;64760;53.404;23.498;2023-05-29T06:13:11;4.38;;;1.90;;
73593;SDS011;64760;53.404;23.498;2023-05-29T06:15:47;6.15;;;2.20;;
73593;SDS011;64760;53.404;23.498;2023-05-29T06:18:13;5.80;;;2.13;;
73593;SDS011;64760;53.404;23.498;2023-05-29T06:20:40;6.57;;;1.80;;
73593;SDS011;64760;53.404;23.498;2023-05-29T06:23:07;6.55;;;1.77;;
73593;SDS011;64760;53.404;23.498;2023-05-29T06:25:35;5.18;;;1.83;;
73593;SDS011;64760;53.404;23.498;2023-05-29T06:28:02;10.43;;;2.53;;
73593;SDS011;64760;53.404;23.498;2023-05-29T06:30:31;5.28;;;1.73;;
73593;SDS011;64760;53.404;23.498;2023-05-29T06:32:58;4.22;;;1.60;;
73593;SDS011;64760;53.404;23.498;2023-05-29T06:35:30;5.60;;;1.67;;
73593;SDS011;64760;53.404;23.498;2023-05-29T06:37:56;3.53;;;1.40;;
73593;SDS011;64760;53.404;23.498;2023-05-29T06:40:23;3.70;;;1.75;;
73593;SDS011;64760;53.404;23.498;2023-05-29T06:42:49;6.60;;;1.75;;
73593;SDS011;64760;53.404;23.498;2023-05-29T06:45:15;4.05;;;1.73;;
73593;SDS011;64760;53.404;23.498;2023-05-29T06:47:42;5.45;;;1.60;;
73593;SDS011;64760;53.404;23.498;2023-05-29T06:50:09;2.88;;;1.38;;
73593;SDS011;64760;53.404;23.498;2023-05-29T06:52:37;5.57;;;1.50;;
73593;SDS011;64760;53.404;23.498;2023-05-29T06:55:26;4.85;;;1.20;;
73593;SDS011;64760;53.404;23.498;2023-05-29T06:57:55;7.90;;;1.50;;
73593;SDS011;64760;53.404;23.498;2023-05-29T07:00:23;4.30;;;1.48;;
73593;SDS011;64760;53.404;23.498;2023-05-29T07:05:48;3.65;;;1.52;;
73593;SDS011;64760;53.404;23.498;2023-05-29T07:08:15;3.50;;;1.45;;
73593;SDS011;64760;53.404;23.498;2023-05-29T07:13:46;4.00;;;1.20;;
73593;SDS011;64760;53.404;23.498;2023-05-29T07:16:15;3.08;;;1.33;;
73593;SDS011;64760;53.404;23.498;2023-05-29T07:18:49;3.13;;;1.33;;
73593;SDS011;64760;53.404;23.498;2023-05-29T07:21:20;3.42;;;1.00;;
73593;SDS011;64760;53.404;23.498;2023-05-29T07:23:50;2.95;;;1.20;;
73593;SDS011;64760;53.404;23.498;2023-05-29T07:26:17;2.53;;;1.05;;
73593;SDS011;64760;53.404;23.498;2023-05-29T07:28:53;3.28;;;1.10;;
73593;SDS011;64760;53.404;23.498;2023-05-29T07:31:20;2.83;;;1.67;;
73593;SDS011;64760;53.404;23.498;2023-05-29T07:33:48;3.00;;;1.10;;
73593;SDS011;64760;53.404;23.498;2023-05-29T07:36:15;3.33;;;1.70;;
73593;SDS011;64760;53.404;23.498;2023-05-29T07:38:44;2.28;;;1.23;;
73593;SDS011;64760;53.404;23.498;2023-05-29T07:41:15;2.35;;;1.20;;
73593;SDS011;64760;53.404;23.498;2023-05-29T07:43:49;3.13;;;1.23;;
73593;SDS011;64760;53.404;23.498;2023-05-29T07:46:19;3.10;;;1.10;;
73593;SDS011;64760;53.404;23.498;2023-05-29T07:48:48;2.97;;;1.23;;
73593;SDS011;64760;53.404;23.498;2023-05-29T07:51:15;2.83;;;1.05;;
73593;SDS011;64760;53.404;23.498;2023-05-29T07:53:45;2.15;;;1.08;;
73593;SDS011;64760;53.404;23.498;2023-05-29T07:56:12;2.95;;;1.13;;
73593;SDS011;64760;53.404;23.498;2023-05-29T07:58:39;3.58;;;1.60;;
73593;SDS011;64760;53.404;23.498;2023-05-29T08:01:07;2.78;;;1.20;;
73593;SDS011;64760;53.404;23.498;2023-05-29T08:03:34;5.05;;;1.55;;
73593;SDS011;64760;53.404;23.498;2023-05-29T08:06:27;4.30;;;1.33;;
73593;SDS011;64760;53.404;23.498;2023-05-29T08:08:53;3.45;;;1.30;;
73593;SDS011;64760;53.404;23.498;2023-05-29T08:11:21;4.43;;;1.13;;
73593;SDS011;64760;53.404;23.498;2023-05-29T08:16:14;4.55;;;1.20;;
73593;SDS011;64760;53.404;23.498;2023-05-29T08:18:42;5.75;;;1.55;;
73593;SDS011;64760;53.404;23.498;2023-05-29T08:21:09;4.38;;;1.70;;
73593;SDS011;64760;53.404;23.498;2023-05-29T08:23:36;4.93;;;1.55;;
73593;SDS011;64760;53.404;23.498;2023-05-29T08:26:02;3.15;;;1.40;;
73593;SDS011;64760;53.404;23.498;2023-05-29T08:28:29;3.15;;;1.52;;
73593;SDS011;64760;53.404;23.498;2023-05-29T08:30:55;1.98;;;1.10;;
73593;SDS011;64760;53.404;23.498;2023-05-29T08:33:22;6.20;;;1.85;;
73593;SDS011;64760;53.404;23.498;2023-05-29T08:35:48;6.93;;;1.40;;
73593;SDS011;64760;53.404;23.498;2023-05-29T08:38:14;3.65;;;1.33;;
73593;SDS011;64760;53.404;23.498;2023-05-29T08:40:42;3.03;;;1.20;;
73593;SDS011;64760;53.404;23.498;2023-05-29T08:45:43;4.78;;;1.50;;
73593;SDS011;64760;53.404;23.498;2023-05-29T08:50:46;4.65;;;1.40;;
73593;SDS011;64760;53.404;23.498;2023-05-29T08:53:13;2.95;;;1.30;;
73593;SDS011;64760;53.404;23.498;2023-05-29T08:55:41;5.20;;;2.30;;
73593;SDS011;64760;53.404;23.498;2023-05-29T08:58:08;2.47;;;1.25;;
73593;SDS011;64760;53.404;23.498;2023-05-29T09:00:36;1.35;;;0.90;;
73593;SDS011;64760;53.404;23.498;2023-05-29T09:03:02;2.13;;;1.23;;
73593;SDS011;64760;53.404;23.498;2023-05-29T09:05:29;3.00;;;1.45;;
73593;SDS011;64760;53.404;23.498;2023-05-29T09:07:56;2.33;;;1.02;;
73593;SDS011;64760;53.404;23.498;2023-05-29T09:10:23;4.97;;;1.85;;
73593;SDS011;64760;53.404;23.498;2023-05-29T09:12:51;3.30;;;1.27;;
73593;SDS011;64760;53.404;23.498;2023-05-29T09:17:48;4.63;;;1.42;;
73593;SDS011;64760;53.404;23.498;2023-05-29T09:20:19;3.08;;;1.27;;
73593;SDS011;64760;53.404;23.498;2023-05-29T09:22:53;5.07;;;1.33;;
73593;SDS011;64760;53.404;23.498;2023-05-29T09:25:24;4.53;;;1.00;;
73593;SDS011;64760;53.404;23.498;2023-05-29T09:30:30;4.90;;;1.50;;
73593;SDS011;64760;53.404;23.498;2023-05-29T09:36:00;4.00;;;1.55;;
73593;SDS011;64760;53.404;23.498;2023-05-29T09:38:26;2.25;;;1.10;;
73593;SDS011;64760;53.404;23.498;2023-05-29T09:40:53;2.25;;;1.13;;
73593;SDS011;64760;53.404;23.498;2023-05-29T09:43:24;2.55;;;1.08;;
73593;SDS011;64760;53.404;23.498;2023-05-29T09:45:51;3.97;;;1.30;;
73593;SDS011;64760;53.404;23.498;2023-05-29T09:48:18;5.25;;;1.40;;
73593;SDS011;64760;53.404;23.498;2023-05-29T09:50:49;2.60;;;1.20;;
73593;SDS011;64760;53.404;23.498;2023-05-29T09:53:19;4.00;;;1.50;;
73593;SDS011;64760;53.404;23.498;2023-05-29T09:55:49;3.40;;;1.40;;
73593;SDS011;64760;53.404;23.498;2023-05-29T10:01:22;3.30;;;1.52;;
73593;SDS011;64760;53.404;23.498;2023-05-29T10:03:50;4.97;;;1.40;;
73593;SDS011;64760;53.404;23.498;2023-05-29T10:06:19;3.45;;;1.35;;
73593;SDS011;64760;53.404;23.498;2023-05-29T10:08:47;3.83;;;1.38;;
73593;SDS011;64760;53.404;23.498;2023-05-29T10:11:22;5.18;;;2.05;;
73593;SDS011;64760;53.404;23.498;2023-05-29T10:13:52;6.50;;;1.92;;
73593;SDS011;64760;53.404;23.498;2023-05-29T10:16:20;6.93;;;3.38;;
73593;SDS011;64760;53.404;23.498;2023-05-29T10:18:54;3.88;;;1.50;;
73593;SDS011;64760;53.404;23.498;2023-05-29T10:21:23;3.20;;;1.33;;
73593;SDS011;64760;53.404;23.498;2023-05-29T10:23:54;3.75;;;1.27;;
73593;SDS011;64760;53.404;23.498;2023-05-29T10:26:25;3.00;;;1.30;;
73593;SDS011;64760;53.404;23.498;2023-05-29T10:28:55;5.13;;;1.83;;
73593;SDS011;64760;53.404;23.498;2023-05-29T10:31:30;3.92;;;1.98;;
73593;SDS011;64760;53.404;23.498;2023-05-29T10:34:13;2.33;;;1.20;;
73593;SDS011;64760;53.404;23.498;2023-05-29T10:36:51;2.92;;;1.40;;
73593;SDS011;64760;53.404;23.498;2023-05-29T10:39:28;3.42;;;1.50;;
73593;SDS011;64760;53.404;23.498;2023-05-29T10:41:55;2.75;;;1.30;;
73593;SDS011;64760;53.404;23.498;2023-05-29T10:49:26;5.18;;;1.70;;
73593;SDS011;64760;53.404;23.498;2023-05-29T10:51:53;5.28;;;1.20;;
73593;SDS011;64760;53.404;23.498;2023-05-29T10:54:21;5.40;;;1.60;;
73593;SDS011;64760;53.404;23.498;2023-05-29T10:57:00;3.17;;;1.17;;
73593;SDS011;64760;53.404;23.498;2023-05-29T10:59:27;3.17;;;1.20;;
73593;SDS011;64760;53.404;23.498;2023-05-29T11:01:54;2.58;;;1.10;;
73593;SDS011;64760;53.404;23.498;2023-05-29T11:06:48;3.10;;;1.25;;
73593;SDS011;64760;53.404;23.498;2023-05-29T11:15:05;3.03;;;1.38;;
73593;SDS011;64760;53.404;23.498;2023-05-29T11:20:04;3.80;;;1.40;;
73593;SDS011;64760;53.404;23.498;2023-05-29T11:25:32;5.63;;;1.48;;
73593;SDS011;64760;53.404;23.498;2023-05-29T11:28:00;4.28;;;1.80;;
73593;SDS011;64760;53.404;23.498;2023-05-29T11:30:26;1.95;;;1.20;;
73593;SDS011;64760;53.404;23.498;2023-05-29T11:32:53;3.72;;;1.50;;
73593;SDS011;64760;53.404;23.498;2023-05-29T11:35:25;4.90;;;1.55;;
73593;SDS011;64760;53.404;23.498;2023-05-29T11:37:56;3.60;;;1.45;;
73593;SDS011;64760;53.404;23.498;2023-05-29T11:42:50;3.80;;;1.30;;
73593;SDS011;64760;53.404;23.498;2023-05-29T11:45:21;7.13;;;1.67;;
73593;SDS011;64760;53.404;23.498;2023-05-29T11:47:55;2.58;;;1.00;;
73593;SDS011;64760;53.404;23.498;2023-05-29T11:50:27;3.10;;;1.25;;
73593;SDS011;64760;53.404;23.498;2023-05-29T11:52:55;4.43;;;1.40;;
73593;SDS011;64760;53.404;23.498;2023-05-29T11:55:22;3.60;;;1.65;;
73593;SDS011;64760;53.404;23.498;2023-05-29T11:57:50;2.75;;;1.50;;
73593;SDS011;64760;53.404;23.498;2023-05-29T12:00:18;4.70;;;1.58;;
73593;SDS011;64760;53.404;23.498;2023-05-29T12:02:45;4.97;;;1.55;;
73593;SDS011;64760;53.404;23.498;2023-05-29T12:05:14;4.95;;;1.75;;
73593;SDS011;64760;53.404;23.498;2023-05-29T12:10:17;6.78;;;1.40;;
73593;SDS011;64760;53.404;23.498;2023-05-29T12:12:48;3.67;;;1.40;;
73593;SDS011;64760;53.404;23.498;2023-05-29T12:15:16;3.05;;;1.40;;
73593;SDS011;64760;53.404;23.498;2023-05-29T12:17:45;2.72;;;1.10;;
73593;SDS011;64760;53.404;23.498;2023-05-29T12:20:12;3.17;;;1.40;;
73593;SDS011;64760;53.404;23.498;2023-05-29T12:22:41;2.65;;;1.10;;
73593;SDS011;64760;53.404;23.498;2023-05-29T12:27:45;4.40;;;1.60;;
73593;SDS011;64760;53.404;23.498;2023-05-29T12:30:13;3.03;;;1.33;;
73593;SDS011;64760;53.404;23.498;2023-05-29T12:32:49;3.83;;;1.40;;
73593;SDS011;64760;53.404;23.498;2023-05-29T12:35:21;5.47;;;1.73;;
73593;SDS011;64760;53.404;23.498;2023-05-29T12:37:49;4.88;;;1.40;;
73593;SDS011;64760;53.404;23.498;2023-05-29T12:40:23;2.50;;;1.40;;
73593;SDS011;64760;53.404;23.498;2023-05-29T12:43:07;3.58;;;1.60;;
73593;SDS011;64760;53.404;23.498;2023-05-29T12:45:37;4.60;;;2.00;;
73593;SDS011;64760;53.404;23.498;2023-05-29T12:48:04;3.83;;;1.50;;
73593;SDS011;64760;53.404;23.498;2023-05-29T12:50:35;2.95;;;1.30;;
73593;SDS011;64760;53.404;23.498;2023-05-29T12:55:32;3.45;;;1.08;;
73593;SDS011;64760;53.404;23.498;2023-05-29T12:58:03;2.65;;;1.52;;
73593;SDS011;64760;53.404;23.498;2023-05-29T13:00:30;4.15;;;1.60;;
73593;SDS011;64760;53.404;23.498;2023-05-29T13:02:58;4.05;;;1.48;;
73593;SDS011;64760;53.404;23.498;2023-05-29T13:05:24;6.25;;;2.28;;
73593;SDS011;64760;53.404;23.498;2023-05-29T13:07:51;3.15;;;1.25;;
73593;SDS011;64760;53.404;23.498;2023-05-29T13:10:18;3.97;;;1.52;;
73593;SDS011;64760;53.404;23.498;2023-05-29T13:12:46;5.20;;;1.30;;
73593;SDS011;64760;53.404;23.498;2023-05-29T13:15:13;4.32;;;1.27;;
73593;SDS011;64760;53.404;23.498;2023-05-29T13:17:40;4.82;;;1.77;;
73593;SDS011;64760;53.404;23.498;2023-05-29T13:20:09;4.03;;;1.60;;
73593;SDS011;64760;53.404;23.498;2023-05-29T13:22:37;5.60;;;2.83;;
73593;SDS011;64760;53.404;23.498;2023-05-29T13:25:05;5.40;;;1.40;;
73593;SDS011;64760;53.404;23.498;2023-05-29T13:27:33;3.65;;;1.50;;
73593;SDS011;64760;53.404;23.498;2023-05-29T13:30:03;2.60;;;1.50;;
73593;SDS011;64760;53.404;23.498;2023-05-29T13:32:31;3.55;;;1.30;;
73593;SDS011;64760;53.404;23.498;2023-05-29T13:34:57;3.65;;;1.70;;
73593;SDS011;64760;53.404;23.498;2023-05-29T13:37:24;3.30;;;1.58;;
73593;SDS011;64760;53.404;23.498;2023-05-29T13:39:51;4.70;;;1.50;;
73593;SDS011;64760;53.404;23.498;2023-05-29T13:42:18;3.17;;;1.70;;
73593;SDS011;64760;53.404;23.498;2023-05-29T13:44:44;2.60;;;1.33;;
73593;SDS011;64760;53.404;23.498;2023-05-29T13:47:11;4.57;;;1.35;;
73593;SDS011;64760;53.404;23.498;2023-05-29T13:49:37;4.07;;;1.40;;
73593;SDS011;64760;53.404;23.498;2023-05-29T13:52:04;7.30;;;1.70;;
73593;SDS011;64760;53.404;23.498;2023-05-29T13:54:31;4.55;;;1.60;;
73593;SDS011;64760;53.404;23.498;2023-05-29T13:57:01;4.50;;;1.70;;
73593;SDS011;64760;53.404;23.498;2023-05-29T13:59:29;4.43;;;1.63;;
73593;SDS011;64760;53.404;23.498;2023-05-29T14:01:59;4.25;;;1.52;;
73593;SDS011;64760;53.404;23.498;2023-05-29T14:06:52;5.30;;;2.15;;
73593;SDS011;64760;53.404;23.498;2023-05-29T14:09:19;4.38;;;2.42;;
73593;SDS011;64760;53.404;23.498;2023-05-29T14:11:55;4.68;;;1.75;;
73593;SDS011;64760;53.404;23.498;2023-05-29T14:14:22;7.38;;;2.05;;
73593;SDS011;64760;53.404;23.498;2023-05-29T14:16:49;3.67;;;1.15;;
73593;SDS011;64760;53.404;23.498;2023-05-29T14:19:15;6.15;;;1.63;;
73593;SDS011;64760;53.404;23.498;2023-05-29T14:21:42;4.55;;;1.30;;
73593;SDS011;64760;53.404;23.498;2023-05-29T14:24:09;4.15;;;1.55;;
73593;SDS011;64760;53.404;23.498;2023-05-29T14:26:35;3.60;;;1.42;;
73593;SDS011;64760;53.404;23.498;2023-05-29T14:29:02;4.35;;;1.63;;
73593;SDS011;64760;53.404;23.498;2023-05-29T14:31:29;4.63;;;1.90;;
73593;SDS011;64760;53.404;23.498;2023-05-29T14:33:55;3.15;;;1.88;;
73593;SDS011;64760;53.404;23.498;2023-05-29T14:36:22;4.13;;;1.52;;
73593;SDS011;64760;53.404;23.498;2023-05-29T14:38:48;3.42;;;1.70;;
73593;SDS011;64760;53.404;23.498;2023-05-29T14:41:15;4.45;;;1.50;;
73593;SDS011;64760;53.404;23.498;2023-05-29T14:43:41;4.65;;;1.90;;
73593;SDS011;64760;53.404;23.498;2023-05-29T14:46:08;4.00;;;1.50;;
73593;SDS011;64760;53.404;23.498;2023-05-29T14:51:02;3.13;;;1.45;;
73593;SDS011;64760;53.404;23.498;2023-05-29T14:53:28;5.00;;;1.63;;
73593;SDS011;64760;53.404;23.498;2023-05-29T14:55:54;5.50;;;1.60;;
73593;SDS011;64760;53.404;23.498;2023-05-29T14:58:21;5.07;;;2.33;;
73593;SDS011;64760;53.404;23.498;2023-05-29T15:00:48;5.07;;;1.30;;
73593;SDS011;64760;53.404;23.498;2023-05-29T15:03:14;4.45;;;1.40;;
73593;SDS011;64760;53.404;23.498;2023-05-29T15:05:40;5.82;;;1.73;;
73593;SDS011;64760;53.404;23.498;2023-05-29T15:08:06;3.28;;;1.55;;
73593;SDS011;64760;53.404;23.498;2023-05-29T15:10:33;3.95;;;1.63;;
73593;SDS011;64760;53.404;23.498;2023-05-29T15:12:59;3.67;;;1.60;;
73593;SDS011;64760;53.404;23.498;2023-05-29T15:15:26;4.38;;;1.83;;
73593;SDS011;64760;53.404;23.498;2023-05-29T15:17:53;6.20;;;1.83;;
73593;SDS011;64760;53.404;23.498;2023-05-29T15:20:23;3.60;;;1.70;;
73593;SDS011;64760;53.404;23.498;2023-05-29T15:22:51;3.17;;;1.52;;
73593;SDS011;64760;53.404;23.498;2023-05-29T15:25:33;3.60;;;1.38;;
73593;SDS011;64760;53.404;23.498;2023-05-29T15:27:59;4.65;;;1.63;;
73593;SDS011;64760;53.404;23.498;2023-05-29T15:30:25;4.13;;;1.77;;
73593;SDS011;64760;53.404;23.498;2023-05-29T15:32:52;4.38;;;1.67;;
73593;SDS011;64760;53.404;23.498;2023-05-29T15:35:18;4.53;;;1.63;;
73593;SDS011;64760;53.404;23.498;2023-05-29T15:37:44;5.03;;;2.42;;
73593;SDS011;64760;53.404;23.498;2023-05-29T15:40:10;4.78;;;2.25;;
73593;SDS011;64760;53.404;23.498;2023-05-29T15:42:37;5.65;;;3.40;;
73593;SDS011;64760;53.404;23.498;2023-05-29T15:45:06;4.53;;;2.50;;
73593;SDS011;64760;53.404;23.498;2023-05-29T15:49:59;4.05;;;1.80;;